Terminal Aerodrome Forecast
Issued by NWS

Home | Current Version | Previous Version | Text Only | Print | Product List | Glossary On
Versions: 1 2 3 4 5 6 7 8 9 10 11 12 13 14 15 16 17
204
FTUS42 KMLB 272331
TAFSFB
TAF
KSFB 272331Z 2800/2824 VRB06KT P6SM VCTS SCT025CB BKN045 OVC250
      TEMPO 2800/2801 3SM TSRA BKN030CB
     FM280200 19004KT P6SM SCT030 SCT120 BKN250
     FM281500 25006KT P6SM SCT035
     FM282000 24008KT P6SM VCTS SCT050CB=

USA.gov is the U.S. government's official web portal to all federal, state and local government web resources and services.